Stolt Greenshank — 2GFD9 — position and weather

sailwx.info

Track history (hours):
 
Tides and Currents Weather Stations Pressure Air Temp Water Temp Dewpoint Dewpoint Depression Visibility Wind Speed Wind Dir Waves Ship Positions

Stolt Greenshank

Last reported at 2017-Sep-24 08:28 UTC. Time now 2017-Sep-24 08:46 UTC.
Position N 53°25' W 003°03'.

Length 90 m; draft 5.1 m.

Type: Tanker. MMSI: 235096859.

Date/timePositionNaut miles runAvg speedWind from/ knotsBaromVisibWave heightAir tempDewpointWater temp
2017-Sep-24 08:28N 53°25' W 003°03'0 0.0
2017-Sep-24 07:55N 53°25' W 003°03'0 0.0
2017-Sep-24 07:25N 53°25' W 003°03'0 0.0
2017-Sep-24 06:58N 53°25' W 003°03'0 0.0
2017-Sep-24 06:25N 53°25' W 003°03'0 0.0
2017-Sep-24 05:58N 53°25' W 003°03'0 0.0
2017-Sep-24 05:28N 53°25' W 003°03'0 0.0
2017-Sep-24 04:55N 53°25' W 003°03'0 0.0
2017-Sep-24 04:28N 53°25' W 003°03'0 0.0
2017-Sep-24 03:55N 53°25' W 003°03'0 0.0
2017-Sep-24 03:28N 53°25' W 003°03'0 0.0
2017-Sep-24 02:58N 53°25' W 003°03'0 0.0
2017-Sep-24 02:28N 53°25' W 003°03'0 0.0
2017-Sep-24 01:58N 53°25' W 003°03'0 1.1
2017-Sep-24 01:30N 53°24' W 003°02'1 1.5
2017-Sep-24 01:00N 53°24' W 003°01'0 0.0
2017-Sep-24 00:30N 53°24' W 003°01'0 0.5
2017-Sep-24 00:00N 53°24' W 003°01'2 3.5
2017-Sep-23 23:30N 53°26' W 003°01'4 8.4
2017-Sep-23 23:00N 53°29' W 003°05'4 8.0
2017-Sep-23 22:30N 53°31' W 003°11'5 9.8
2017-Sep-23 22:00N 53°31' W 003°19'3 6.4
2017-Sep-23 21:30N 53°29' W 003°24'1 2.0
2017-Sep-23 20:59N 53°28' W 003°24'0 0.4
2017-Sep-23 20:29N 53°29' W 003°24'0 0.5
2017-Sep-23 19:59N 53°29' W 003°24'204 4.9
2017-Sep-22 02:01N 51°51' W 008°20'3 5.7
2017-Sep-22 01:30N 51°49' W 008°16'510.1
2017-Sep-22 01:01N 51°45' W 008°13'5 9.7
2017-Sep-22 00:31N 51°41' W 008°08'5 9.8
2017-Sep-22 00:01N 51°38' W 008°02'510.3
2017-Sep-21 23:31N 51°34' W 007°56'511.0
2017-Sep-21 23:01N 51°30' W 007°49'173 9.7
2017-Sep-21 05:04N 50°05' W 003°51'1 9.0
2017-Sep-21 05:01N 50°05' W 003°50'5 9.4
2017-Sep-21 04:31N 50°06' W 003°43'510.1
2017-Sep-21 04:01N 50°07' W 003°35'510.9
2017-Sep-21 03:31N 50°08' W 003°27'611.5
2017-Sep-21 03:01N 50°09' W 003°18'612.1
2017-Sep-21 02:31N 50°12' W 003°10'612.6
2017-Sep-21 02:01N 50°15' W 003°01'813.0
2017-Sep-21 01:23N 50°16' W 002°49'10610.7
2017-Sep-20 15:26N 50°31' W 000°04'2912.7
2017-Sep-20 13:11N 50°40' E 000°39'211.8
2017-Sep-20 12:59N 50°42' E 000°42'4 7.7
2017-Sep-20 12:30N 50°44' E 000°46'3410.5
2017-Sep-20 09:14N 51°05' E 001°29'314.5
2017-Sep-20 09:00N 51°07' E 001°33'715.1
2017-Sep-20 08:30N 51°12' E 001°43'815.2
2017-Sep-20 08:00N 51°18' E 001°49'714.8
2017-Sep-20 07:30N 51°25' E 001°53'8410.7
2017-Sep-19 23:41N 52°02' E 003°55'1 7.1
2017-Sep-19 23:29N 52°02' E 003°57'612.6
2017-Sep-19 23:00N 51°59' E 004°05'510.4
2017-Sep-19 22:30N 51°56' E 004°12'1 0.0
2017-Sep-18 23:16N 51°55' E 004°13'0 0.3
2017-Sep-18 23:00N 51°55' E 004°13'2 4.7
2017-Sep-18 22:30N 51°57' E 004°10'510.7
2017-Sep-18 22:00N 51°59' E 004°03'611.3
2017-Sep-18 21:30N 52°00' E 003°54'9511.5
2017-Sep-18 13:18N 52°57' E 001°50'310.4
2017-Sep-18 13:00N 52°59' E 001°45'510.3
2017-Sep-18 12:30N 53°01' E 001°38'510.2
2017-Sep-18 12:00N 53°04' E 001°31'510.5
2017-Sep-18 11:30N 53°08' E 001°25'8411.5
2017-Sep-18 04:08N 54°19' E 000°09'213.1
2017-Sep-18 04:00N 54°21' E 000°07'713.4
2017-Sep-18 03:29N 54°26' W 000°01'713.5
2017-Sep-18 03:00N 54°31' W 000°08'10 0.3
2017-Sep-16 14:01N 54°35' W 000°24'1 7.3
2017-Sep-16 13:50N 54°35' W 000°22'2 6.7
2017-Sep-16 13:30N 54°33' W 000°18'3 6.9
2017-Sep-16 13:00N 54°32' W 000°13'3 6.9
2017-Sep-16 12:30N 54°30' W 000°08'3 6.5
2017-Sep-16 12:00N 54°28' W 000°04'3 6.8
2017-Sep-16 11:30N 54°26' E 000°00'3 6.3
2017-Sep-16 11:00N 54°23' E 000°03'3 6.6
2017-Sep-16 10:30N 54°20' E 000°07'44 5.7
2017-Sep-16 02:55N 53°38' W 000°10'0 0.9
2017-Sep-16 02:29N 53°38' W 000°11'0 0.0
2017-Sep-16 01:59N 53°38' W 000°11'0 0.0
2017-Sep-15 08:36N 53°38' W 000°11'0 2.9
2017-Sep-15 08:30N 53°38' W 000°11'  
Track history (hours):
 
Tides and Currents Weather Stations Pressure Air Temp Water Temp Dewpoint Dewpoint Depression Visibility Wind Speed Wind Dir Waves Ship Positions

Stolt Greenshank

Last reported at 2017-Sep-24 08:28 UTC. Time now 2017-Sep-24 08:46 UTC.
Position N 53°25' W 003°03'.

Length 90 m; draft 5.1 m.

Type: Tanker. MMSI: 235096859.

Date/timePositionNaut miles runAvg speedWind from/ knotsBaromVisibWave heightAir tempDewpointWater temp
2017-Sep-24 08:28N 53°25' W 003°03'0 0.0
2017-Sep-24 07:55N 53°25' W 003°03'0 0.0
2017-Sep-24 07:25N 53°25' W 003°03'0 0.0
2017-Sep-24 06:58N 53°25' W 003°03'0 0.0
2017-Sep-24 06:25N 53°25' W 003°03'0 0.0
2017-Sep-24 05:58N 53°25' W 003°03'0 0.0
2017-Sep-24 05:28N 53°25' W 003°03'0 0.0
2017-Sep-24 04:55N 53°25' W 003°03'0 0.0
2017-Sep-24 04:28N 53°25' W 003°03'0 0.0
2017-Sep-24 03:55N 53°25' W 003°03'0 0.0
2017-Sep-24 03:28N 53°25' W 003°03'0 0.0
2017-Sep-24 02:58N 53°25' W 003°03'0 0.0
2017-Sep-24 02:28N 53°25' W 003°03'0 0.0
2017-Sep-24 01:58N 53°25' W 003°03'0 1.1
2017-Sep-24 01:30N 53°24' W 003°02'1 1.5
2017-Sep-24 01:00N 53°24' W 003°01'0 0.0
2017-Sep-24 00:30N 53°24' W 003°01'0 0.5
2017-Sep-24 00:00N 53°24' W 003°01'2 3.5
2017-Sep-23 23:30N 53°26' W 003°01'4 8.4
2017-Sep-23 23:00N 53°29' W 003°05'4 8.0
2017-Sep-23 22:30N 53°31' W 003°11'5 9.8
2017-Sep-23 22:00N 53°31' W 003°19'3 6.4
2017-Sep-23 21:30N 53°29' W 003°24'1 2.0
2017-Sep-23 20:59N 53°28' W 003°24'0 0.4
2017-Sep-23 20:29N 53°29' W 003°24'0 0.5
2017-Sep-23 19:59N 53°29' W 003°24'204 4.9
2017-Sep-22 02:01N 51°51' W 008°20'3 5.7
2017-Sep-22 01:30N 51°49' W 008°16'510.1
2017-Sep-22 01:01N 51°45' W 008°13'5 9.7
2017-Sep-22 00:31N 51°41' W 008°08'5 9.8
2017-Sep-22 00:01N 51°38' W 008°02'510.3
2017-Sep-21 23:31N 51°34' W 007°56'511.0
2017-Sep-21 23:01N 51°30' W 007°49'173 9.7
2017-Sep-21 05:04N 50°05' W 003°51'1 9.0
2017-Sep-21 05:01N 50°05' W 003°50'5 9.4
2017-Sep-21 04:31N 50°06' W 003°43'510.1
2017-Sep-21 04:01N 50°07' W 003°35'510.9
2017-Sep-21 03:31N 50°08' W 003°27'611.5
2017-Sep-21 03:01N 50°09' W 003°18'612.1
2017-Sep-21 02:31N 50°12' W 003°10'612.6
2017-Sep-21 02:01N 50°15' W 003°01'813.0
2017-Sep-21 01:23N 50°16' W 002°49'10610.7
2017-Sep-20 15:26N 50°31' W 000°04'2912.7
2017-Sep-20 13:11N 50°40' E 000°39'211.8
2017-Sep-20 12:59N 50°42' E 000°42'4 7.7
2017-Sep-20 12:30N 50°44' E 000°46'3410.5
2017-Sep-20 09:14N 51°05' E 001°29'314.5
2017-Sep-20 09:00N 51°07' E 001°33'715.1
2017-Sep-20 08:30N 51°12' E 001°43'815.2
2017-Sep-20 08:00N 51°18' E 001°49'714.8
2017-Sep-20 07:30N 51°25' E 001°53'8410.7
2017-Sep-19 23:41N 52°02' E 003°55'1 7.1
2017-Sep-19 23:29N 52°02' E 003°57'612.6
2017-Sep-19 23:00N 51°59' E 004°05'510.4
2017-Sep-19 22:30N 51°56' E 004°12'1 0.0
2017-Sep-18 23:16N 51°55' E 004°13'0 0.3
2017-Sep-18 23:00N 51°55' E 004°13'2 4.7
2017-Sep-18 22:30N 51°57' E 004°10'510.7
2017-Sep-18 22:00N 51°59' E 004°03'611.3
2017-Sep-18 21:30N 52°00' E 003°54'9511.5
2017-Sep-18 13:18N 52°57' E 001°50'310.4
2017-Sep-18 13:00N 52°59' E 001°45'510.3
2017-Sep-18 12:30N 53°01' E 001°38'510.2
2017-Sep-18 12:00N 53°04' E 001°31'510.5
2017-Sep-18 11:30N 53°08' E 001°25'8411.5
2017-Sep-18 04:08N 54°19' E 000°09'213.1
2017-Sep-18 04:00N 54°21' E 000°07'713.4
2017-Sep-18 03:29N 54°26' W 000°01'713.5
2017-Sep-18 03:00N 54°31' W 000°08'10 0.3
2017-Sep-16 14:01N 54°35' W 000°24'1 7.3
2017-Sep-16 13:50N 54°35' W 000°22'2 6.7
2017-Sep-16 13:30N 54°33' W 000°18'3 6.9
2017-Sep-16 13:00N 54°32' W 000°13'3 6.9
2017-Sep-16 12:30N 54°30' W 000°08'3 6.5
2017-Sep-16 12:00N 54°28' W 000°04'3 6.8
2017-Sep-16 11:30N 54°26' E 000°00'3 6.3
2017-Sep-16 11:00N 54°23' E 000°03'3 6.6
2017-Sep-16 10:30N 54°20' E 000°07'44 5.7
2017-Sep-16 02:55N 53°38' W 000°10'0 0.9
2017-Sep-16 02:29N 53°38' W 000°11'0 0.0
2017-Sep-16 01:59N 53°38' W 000°11'0 0.0
2017-Sep-15 08:36N 53°38' W 000°11'0 2.9
2017-Sep-15 08:30N 53°38' W 000°11'  

Dump ship's entire track history